sensor_id;sensor_type;location;lat;lon;timestamp;P1;durP1;ratioP1;P2;durP2;ratioP2
57627;SDS011;43451;49.060;10.616;2022-10-01T00:00:18;23.38;;;14.15;;
57627;SDS011;43451;49.060;10.616;2022-10-01T00:02:44;22.92;;;14.50;;
57627;SDS011;43451;49.060;10.616;2022-10-01T00:05:11;23.35;;;14.55;;
57627;SDS011;43451;49.060;10.616;2022-10-01T00:07:37;25.73;;;14.30;;
57627;SDS011;43451;49.060;10.616;2022-10-01T00:10:04;24.83;;;13.45;;
57627;SDS011;43451;49.060;10.616;2022-10-01T00:12:30;22.08;;;13.32;;
57627;SDS011;43451;49.060;10.616;2022-10-01T00:14:56;24.27;;;14.60;;
57627;SDS011;43451;49.060;10.616;2022-10-01T00:17:21;23.08;;;13.93;;
57627;SDS011;43451;49.060;10.616;2022-10-01T00:19:46;28.85;;;16.48;;
57627;SDS011;43451;49.060;10.616;2022-10-01T00:22:12;31.67;;;15.90;;
57627;SDS011;43451;49.060;10.616;2022-10-01T00:24:37;25.85;;;15.60;;
57627;SDS011;43451;49.060;10.616;2022-10-01T00:27:03;24.33;;;13.90;;
57627;SDS011;43451;49.060;10.616;2022-10-01T00:29:28;22.75;;;14.52;;
57627;SDS011;43451;49.060;10.616;2022-10-01T00:31:55;22.75;;;14.23;;
57627;SDS011;43451;49.060;10.616;2022-10-01T00:34:21;23.63;;;14.30;;
57627;SDS011;43451;49.060;10.616;2022-10-01T00:36:46;24.73;;;15.13;;
57627;SDS011;43451;49.060;10.616;2022-10-01T00:39:11;24.17;;;14.40;;
57627;SDS011;43451;49.060;10.616;2022-10-01T00:41:37;24.05;;;14.07;;
57627;SDS011;43451;49.060;10.616;2022-10-01T00:44:25;23.63;;;14.23;;
57627;SDS011;43451;49.060;10.616;2022-10-01T00:46:52;23.50;;;14.02;;
57627;SDS011;43451;49.060;10.616;2022-10-01T00:49:21;26.73;;;15.48;;
57627;SDS011;43451;49.060;10.616;2022-10-01T00:51:51;27.10;;;15.05;;
57627;SDS011;43451;49.060;10.616;2022-10-01T00:54:23;26.65;;;14.88;;
57627;SDS011;43451;49.060;10.616;2022-10-01T00:56:50;23.10;;;14.13;;
57627;SDS011;43451;49.060;10.616;2022-10-01T00:59:18;23.50;;;14.10;;
57627;SDS011;43451;49.060;10.616;2022-10-01T01:01:44;23.40;;;14.52;;
57627;SDS011;43451;49.060;10.616;2022-10-01T01:04:09;25.00;;;14.20;;
57627;SDS011;43451;49.060;10.616;2022-10-01T01:06:45;25.65;;;15.70;;
57627;SDS011;43451;49.060;10.616;2022-10-01T01:09:18;26.40;;;15.00;;
57627;SDS011;43451;49.060;10.616;2022-10-01T01:14:24;25.63;;;15.32;;
57627;SDS011;43451;49.060;10.616;2022-10-01T01:16:59;26.08;;;15.02;;
57627;SDS011;43451;49.060;10.616;2022-10-01T01:22:20;23.98;;;14.27;;
57627;SDS011;43451;49.060;10.616;2022-10-01T01:24:49;28.38;;;15.57;;
57627;SDS011;43451;49.060;10.616;2022-10-01T01:32:43;27.23;;;15.13;;
57627;SDS011;43451;49.060;10.616;2022-10-01T01:35:58;27.23;;;15.27;;
57627;SDS011;43451;49.060;10.616;2022-10-01T01:38:09;24.58;;;14.77;;
57627;SDS011;43451;49.060;10.616;2022-10-01T01:40:38;25.65;;;14.93;;
57627;SDS011;43451;49.060;10.616;2022-10-01T01:43:09;28.60;;;16.77;;
57627;SDS011;43451;49.060;10.616;2022-10-01T01:45:38;27.98;;;15.95;;
57627;SDS011;43451;49.060;10.616;2022-10-01T01:48:04;26.52;;;15.85;;
57627;SDS011;43451;49.060;10.616;2022-10-01T01:50:32;28.70;;;16.05;;
57627;SDS011;43451;49.060;10.616;2022-10-01T01:53:06;24.45;;;14.43;;
57627;SDS011;43451;49.060;10.616;2022-10-01T01:55:32;28.15;;;15.55;;
57627;SDS011;43451;49.060;10.616;2022-10-01T01:57:59;24.75;;;14.60;;
57627;SDS011;43451;49.060;10.616;2022-10-01T02:00:25;26.67;;;14.23;;
57627;SDS011;43451;49.060;10.616;2022-10-01T02:02:51;24.33;;;14.65;;
57627;SDS011;43451;49.060;10.616;2022-10-01T02:05:22;24.60;;;14.35;;
57627;SDS011;43451;49.060;10.616;2022-10-01T02:08:09;21.65;;;13.45;;
57627;SDS011;43451;49.060;10.616;2022-10-01T02:10:56;24.58;;;14.52;;
57627;SDS011;43451;49.060;10.616;2022-10-01T02:16:38;27.02;;;14.82;;
57627;SDS011;43451;49.060;10.616;2022-10-01T02:20:09;24.23;;;14.18;;
57627;SDS011;43451;49.060;10.616;2022-10-01T02:22:31;24.10;;;14.18;;
57627;SDS011;43451;49.060;10.616;2022-10-01T02:25:06;24.33;;;14.48;;
57627;SDS011;43451;49.060;10.616;2022-10-01T02:30:03;28.77;;;15.85;;
57627;SDS011;43451;49.060;10.616;2022-10-01T02:32:41;25.13;;;14.27;;
57627;SDS011;43451;49.060;10.616;2022-10-01T02:35:10;26.88;;;14.52;;
57627;SDS011;43451;49.060;10.616;2022-10-01T02:37:39;27.05;;;14.90;;
57627;SDS011;43451;49.060;10.616;2022-10-01T02:40:08;27.05;;;15.07;;
57627;SDS011;43451;49.060;10.616;2022-10-01T02:42:39;27.77;;;15.93;;
57627;SDS011;43451;49.060;10.616;2022-10-01T02:45:09;28.42;;;15.45;;
57627;SDS011;43451;49.060;10.616;2022-10-01T02:47:36;25.85;;;14.98;;
57627;SDS011;43451;49.060;10.616;2022-10-01T02:50:05;27.27;;;15.65;;
57627;SDS011;43451;49.060;10.616;2022-10-01T02:57:45;26.58;;;15.50;;
57627;SDS011;43451;49.060;10.616;2022-10-01T03:00:12;28.83;;;15.75;;
57627;SDS011;43451;49.060;10.616;2022-10-01T03:02:40;26.80;;;14.73;;
57627;SDS011;43451;49.060;10.616;2022-10-01T03:05:06;27.70;;;14.90;;
57627;SDS011;43451;49.060;10.616;2022-10-01T03:07:33;26.52;;;15.23;;
57627;SDS011;43451;49.060;10.616;2022-10-01T03:10:00;25.27;;;14.70;;
57627;SDS011;43451;49.060;10.616;2022-10-01T03:12:26;27.58;;;15.57;;
57627;SDS011;43451;49.060;10.616;2022-10-01T03:14:51;28.27;;;15.65;;
57627;SDS011;43451;49.060;10.616;2022-10-01T03:17:17;28.00;;;15.95;;
57627;SDS011;43451;49.060;10.616;2022-10-01T03:19:43;28.40;;;15.18;;
57627;SDS011;43451;49.060;10.616;2022-10-01T03:22:10;25.92;;;15.15;;
57627;SDS011;43451;49.060;10.616;2022-10-01T03:24:37;27.30;;;15.52;;
57627;SDS011;43451;49.060;10.616;2022-10-01T03:27:03;25.58;;;14.73;;
57627;SDS011;43451;49.060;10.616;2022-10-01T03:29:28;27.45;;;15.80;;
57627;SDS011;43451;49.060;10.616;2022-10-01T03:31:54;26.70;;;15.30;;
57627;SDS011;43451;49.060;10.616;2022-10-01T03:34:19;26.60;;;15.35;;
57627;SDS011;43451;49.060;10.616;2022-10-01T03:36:45;27.95;;;15.60;;
57627;SDS011;43451;49.060;10.616;2022-10-01T03:39:11;25.58;;;15.15;;
57627;SDS011;43451;49.060;10.616;2022-10-01T03:41:37;27.02;;;14.82;;
57627;SDS011;43451;49.060;10.616;2022-10-01T03:44:02;25.27;;;14.18;;
57627;SDS011;43451;49.060;10.616;2022-10-01T03:46:28;25.45;;;15.13;;
57627;SDS011;43451;49.060;10.616;2022-10-01T03:48:55;25.98;;;15.00;;
57627;SDS011;43451;49.060;10.616;2022-10-01T03:51:25;28.10;;;14.60;;
57627;SDS011;43451;49.060;10.616;2022-10-01T03:53:54;24.75;;;14.10;;
57627;SDS011;43451;49.060;10.616;2022-10-01T03:56:20;23.23;;;13.88;;
57627;SDS011;43451;49.060;10.616;2022-10-01T03:58:46;25.27;;;13.88;;
57627;SDS011;43451;49.060;10.616;2022-10-01T04:01:12;24.27;;;14.50;;
57627;SDS011;43451;49.060;10.616;2022-10-01T04:03:37;25.45;;;14.43;;
57627;SDS011;43451;49.060;10.616;2022-10-01T04:06:02;26.85;;;15.95;;
57627;SDS011;43451;49.060;10.616;2022-10-01T04:08:28;27.75;;;15.38;;
57627;SDS011;43451;49.060;10.616;2022-10-01T04:10:53;24.77;;;15.02;;
57627;SDS011;43451;49.060;10.616;2022-10-01T04:13:19;25.25;;;15.30;;
57627;SDS011;43451;49.060;10.616;2022-10-01T04:15:44;25.00;;;15.45;;
57627;SDS011;43451;49.060;10.616;2022-10-01T04:18:10;25.02;;;15.68;;
57627;SDS011;43451;49.060;10.616;2022-10-01T04:20:36;26.90;;;16.00;;
57627;SDS011;43451;49.060;10.616;2022-10-01T04:23:05;26.45;;;15.68;;
57627;SDS011;43451;49.060;10.616;2022-10-01T04:25:30;26.15;;;15.25;;
57627;SDS011;43451;49.060;10.616;2022-10-01T04:28:00;23.83;;;14.55;;
57627;SDS011;43451;49.060;10.616;2022-10-01T04:30:28;24.58;;;14.30;;
57627;SDS011;43451;49.060;10.616;2022-10-01T04:32:55;26.05;;;15.60;;
57627;SDS011;43451;49.060;10.616;2022-10-01T04:35:21;25.80;;;14.80;;
57627;SDS011;43451;49.060;10.616;2022-10-01T04:37:47;23.60;;;14.48;;
57627;SDS011;43451;49.060;10.616;2022-10-01T04:40:19;25.83;;;14.75;;
57627;SDS011;43451;49.060;10.616;2022-10-01T04:42:44;25.23;;;14.88;;
57627;SDS011;43451;49.060;10.616;2022-10-01T04:45:10;22.30;;;13.82;;
57627;SDS011;43451;49.060;10.616;2022-10-01T04:47:36;24.00;;;14.88;;
57627;SDS011;43451;49.060;10.616;2022-10-01T04:50:02;28.15;;;15.40;;
57627;SDS011;43451;49.060;10.616;2022-10-01T04:52:27;22.88;;;14.00;;
57627;SDS011;43451;49.060;10.616;2022-10-01T04:54:53;24.20;;;13.95;;
57627;SDS011;43451;49.060;10.616;2022-10-01T04:57:18;22.33;;;13.60;;
57627;SDS011;43451;49.060;10.616;2022-10-01T05:02:13;22.13;;;13.25;;
57627;SDS011;43451;49.060;10.616;2022-10-01T05:04:38;22.40;;;13.80;;
57627;SDS011;43451;49.060;10.616;2022-10-01T05:07:04;23.23;;;14.02;;
57627;SDS011;43451;49.060;10.616;2022-10-01T05:09:30;22.20;;;13.80;;
57627;SDS011;43451;49.060;10.616;2022-10-01T05:11:55;22.33;;;14.00;;
57627;SDS011;43451;49.060;10.616;2022-10-01T05:14:21;21.17;;;13.25;;
57627;SDS011;43451;49.060;10.616;2022-10-01T05:16:46;22.42;;;13.65;;
57627;SDS011;43451;49.060;10.616;2022-10-01T05:19:12;22.55;;;13.75;;
57627;SDS011;43451;49.060;10.616;2022-10-01T05:21:38;23.95;;;14.73;;
57627;SDS011;43451;49.060;10.616;2022-10-01T05:24:04;22.20;;;13.73;;
57627;SDS011;43451;49.060;10.616;2022-10-01T05:26:30;22.85;;;13.40;;
57627;SDS011;43451;49.060;10.616;2022-10-01T05:28:56;22.73;;;13.63;;
57627;SDS011;43451;49.060;10.616;2022-10-01T05:31:23;21.67;;;13.88;;
57627;SDS011;43451;49.060;10.616;2022-10-01T05:33:49;21.48;;;14.00;;
57627;SDS011;43451;49.060;10.616;2022-10-01T05:36:14;25.88;;;14.98;;
57627;SDS011;43451;49.060;10.616;2022-10-01T05:38:39;23.70;;;14.50;;
57627;SDS011;43451;49.060;10.616;2022-10-01T05:41:05;23.50;;;13.75;;
57627;SDS011;43451;49.060;10.616;2022-10-01T05:43:31;23.63;;;14.45;;
57627;SDS011;43451;49.060;10.616;2022-10-01T05:46:00;21.00;;;13.75;;
57627;SDS011;43451;49.060;10.616;2022-10-01T05:48:26;22.05;;;13.77;;
57627;SDS011;43451;49.060;10.616;2022-10-01T05:50:52;24.55;;;14.80;;
57627;SDS011;43451;49.060;10.616;2022-10-01T05:53:18;25.00;;;14.45;;
57627;SDS011;43451;49.060;10.616;2022-10-01T05:55:44;22.40;;;14.25;;
57627;SDS011;43451;49.060;10.616;2022-10-01T05:58:11;23.77;;;14.63;;
57627;SDS011;43451;49.060;10.616;2022-10-01T06:00:38;20.88;;;13.75;;
57627;SDS011;43451;49.060;10.616;2022-10-01T06:03:05;24.25;;;15.10;;
57627;SDS011;43451;49.060;10.616;2022-10-01T06:05:31;24.30;;;13.73;;
57627;SDS011;43451;49.060;10.616;2022-10-01T06:07:58;26.65;;;14.50;;
57627;SDS011;43451;49.060;10.616;2022-10-01T06:10:25;24.17;;;14.50;;
57627;SDS011;43451;49.060;10.616;2022-10-01T06:12:57;22.83;;;14.45;;
57627;SDS011;43451;49.060;10.616;2022-10-01T06:15:31;28.58;;;15.25;;
57627;SDS011;43451;49.060;10.616;2022-10-01T06:18:05;21.00;;;13.85;;
57627;SDS011;43451;49.060;10.616;2022-10-01T06:20:32;24.95;;;17.20;;
57627;SDS011;43451;49.060;10.616;2022-10-01T06:22:58;23.60;;;15.07;;
57627;SDS011;43451;49.060;10.616;2022-10-01T06:25:24;21.63;;;14.32;;
57627;SDS011;43451;49.060;10.616;2022-10-01T06:27:55;21.55;;;14.00;;
57627;SDS011;43451;49.060;10.616;2022-10-01T06:30:23;21.08;;;14.18;;
57627;SDS011;43451;49.060;10.616;2022-10-01T06:32:58;20.35;;;13.85;;
57627;SDS011;43451;49.060;10.616;2022-10-01T06:35:26;20.10;;;13.23;;
57627;SDS011;43451;49.060;10.616;2022-10-01T06:37:52;18.60;;;12.20;;
57627;SDS011;43451;49.060;10.616;2022-10-01T06:40:17;19.13;;;12.15;;
57627;SDS011;43451;49.060;10.616;2022-10-01T06:42:49;18.67;;;12.43;;
57627;SDS011;43451;49.060;10.616;2022-10-01T06:45:18;17.17;;;11.55;;
57627;SDS011;43451;49.060;10.616;2022-10-01T06:47:43;17.92;;;12.63;;
57627;SDS011;43451;49.060;10.616;2022-10-01T06:50:09;18.60;;;12.10;;
57627;SDS011;43451;49.060;10.616;2022-10-01T06:52:35;17.70;;;12.00;;
57627;SDS011;43451;49.060;10.616;2022-10-01T06:55:14;17.88;;;12.15;;
57627;SDS011;43451;49.060;10.616;2022-10-01T06:57:43;17.52;;;11.75;;
57627;SDS011;43451;49.060;10.616;2022-10-01T07:00:09;18.02;;;11.40;;
57627;SDS011;43451;49.060;10.616;2022-10-01T07:02:36;17.83;;;11.55;;
57627;SDS011;43451;49.060;10.616;2022-10-01T07:05:02;15.77;;;11.23;;
57627;SDS011;43451;49.060;10.616;2022-10-01T07:07:31;16.70;;;11.05;;
57627;SDS011;43451;49.060;10.616;2022-10-01T07:09:59;17.58;;;10.90;;
57627;SDS011;43451;49.060;10.616;2022-10-01T07:12:25;16.88;;;11.77;;
57627;SDS011;43451;49.060;10.616;2022-10-01T07:14:51;17.02;;;11.25;;
57627;SDS011;43451;49.060;10.616;2022-10-01T07:17:17;14.93;;;10.25;;
57627;SDS011;43451;49.060;10.616;2022-10-01T07:19:43;15.52;;;10.98;;
57627;SDS011;43451;49.060;10.616;2022-10-01T07:22:08;17.02;;;10.90;;
57627;SDS011;43451;49.060;10.616;2022-10-01T07:24:34;15.48;;;10.85;;
57627;SDS011;43451;49.060;10.616;2022-10-01T07:26:59;14.75;;;10.43;;
57627;SDS011;43451;49.060;10.616;2022-10-01T07:29:25;15.40;;;10.55;;
57627;SDS011;43451;49.060;10.616;2022-10-01T07:32:00;15.48;;;10.60;;
57627;SDS011;43451;49.060;10.616;2022-10-01T07:34:26;15.05;;;10.18;;
57627;SDS011;43451;49.060;10.616;2022-10-01T07:36:53;14.80;;;10.50;;
57627;SDS011;43451;49.060;10.616;2022-10-01T07:39:20;14.60;;;9.88;;
57627;SDS011;43451;49.060;10.616;2022-10-01T07:41:47;14.35;;;9.90;;
57627;SDS011;43451;49.060;10.616;2022-10-01T07:44:15;15.10;;;10.23;;
57627;SDS011;43451;49.060;10.616;2022-10-01T07:46:41;14.68;;;9.80;;
57627;SDS011;43451;49.060;10.616;2022-10-01T07:49:07;15.18;;;10.18;;
57627;SDS011;43451;49.060;10.616;2022-10-01T07:51:33;14.32;;;10.27;;
57627;SDS011;43451;49.060;10.616;2022-10-01T07:54:00;17.52;;;10.73;;
57627;SDS011;43451;49.060;10.616;2022-10-01T07:56:26;14.65;;;10.45;;
57627;SDS011;43451;49.060;10.616;2022-10-01T07:58:55;13.00;;;9.27;;
57627;SDS011;43451;49.060;10.616;2022-10-01T08:01:21;14.23;;;10.00;;
57627;SDS011;43451;49.060;10.616;2022-10-01T08:03:48;14.68;;;9.88;;
57627;SDS011;43451;49.060;10.616;2022-10-01T08:06:14;16.15;;;9.85;;
57627;SDS011;43451;49.060;10.616;2022-10-01T08:08:40;13.40;;;9.95;;
57627;SDS011;43451;49.060;10.616;2022-10-01T08:11:06;15.25;;;10.10;;
57627;SDS011;43451;49.060;10.616;2022-10-01T08:16:01;13.77;;;9.18;;
57627;SDS011;43451;49.060;10.616;2022-10-01T08:18:30;14.60;;;10.05;;
57627;SDS011;43451;49.060;10.616;2022-10-01T08:20:57;15.45;;;9.95;;
57627;SDS011;43451;49.060;10.616;2022-10-01T08:23:26;13.60;;;9.88;;
57627;SDS011;43451;49.060;10.616;2022-10-01T08:25:52;17.88;;;10.35;;
57627;SDS011;43451;49.060;10.616;2022-10-01T08:28:24;15.68;;;10.35;;
57627;SDS011;43451;49.060;10.616;2022-10-01T08:30:49;14.02;;;10.25;;
57627;SDS011;43451;49.060;10.616;2022-10-01T08:33:15;14.93;;;10.77;;
57627;SDS011;43451;49.060;10.616;2022-10-01T08:35:41;15.98;;;10.98;;
57627;SDS011;43451;49.060;10.616;2022-10-01T08:38:07;14.35;;;10.70;;
57627;SDS011;43451;49.060;10.616;2022-10-01T08:40:35;15.32;;;10.65;;
57627;SDS011;43451;49.060;10.616;2022-10-01T08:43:21;15.23;;;10.98;;
57627;SDS011;43451;49.060;10.616;2022-10-01T08:45:52;18.60;;;10.57;;
57627;SDS011;43451;49.060;10.616;2022-10-01T08:56:24;16.38;;;10.77;;
57627;SDS011;43451;49.060;10.616;2022-10-01T08:58:59;15.38;;;11.02;;
57627;SDS011;43451;49.060;10.616;2022-10-01T09:01:28;15.30;;;10.23;;
57627;SDS011;43451;49.060;10.616;2022-10-01T09:03:55;15.85;;;10.68;;
57627;SDS011;43451;49.060;10.616;2022-10-01T09:06:22;15.02;;;10.02;;
57627;SDS011;43451;49.060;10.616;2022-10-01T09:19:50;13.32;;;9.45;;
57627;SDS011;43451;49.060;10.616;2022-10-01T09:27:33;13.07;;;9.57;;
57627;SDS011;43451;49.060;10.616;2022-10-01T09:30:02;13.75;;;9.77;;
57627;SDS011;43451;49.060;10.616;2022-10-01T09:32:37;14.95;;;9.80;;
57627;SDS011;43451;49.060;10.616;2022-10-01T09:35:34;13.13;;;8.98;;
57627;SDS011;43451;49.060;10.616;2022-10-01T09:38:03;13.50;;;9.90;;
57627;SDS011;43451;49.060;10.616;2022-10-01T09:40:48;12.40;;;8.95;;
57627;SDS011;43451;49.060;10.616;2022-10-01T09:43:19;11.70;;;8.68;;
57627;SDS011;43451;49.060;10.616;2022-10-01T09:45:47;12.70;;;9.10;;
57627;SDS011;43451;49.060;10.616;2022-10-01T09:48:19;12.63;;;8.95;;
57627;SDS011;43451;49.060;10.616;2022-10-01T09:50:58;10.95;;;8.45;;
57627;SDS011;43451;49.060;10.616;2022-10-01T09:53:35;11.48;;;8.00;;
57627;SDS011;43451;49.060;10.616;2022-10-01T09:56:16;10.02;;;7.65;;
57627;SDS011;43451;49.060;10.616;2022-10-01T09:58:54;10.05;;;7.85;;
57627;SDS011;43451;49.060;10.616;2022-10-01T10:01:33;9.52;;;7.15;;
57627;SDS011;43451;49.060;10.616;2022-10-01T10:04:17;9.35;;;7.15;;
57627;SDS011;43451;49.060;10.616;2022-10-01T10:06:48;10.52;;;6.90;;
57627;SDS011;43451;49.060;10.616;2022-10-01T10:09:18;9.93;;;6.32;;
57627;SDS011;43451;49.060;10.616;2022-10-01T10:11:52;8.68;;;6.18;;
57627;SDS011;43451;49.060;10.616;2022-10-01T10:14:24;12.18;;;6.10;;
57627;SDS011;43451;49.060;10.616;2022-10-01T10:16:54;7.68;;;5.70;;
57627;SDS011;43451;49.060;10.616;2022-10-01T10:19:21;7.13;;;6.07;;
57627;SDS011;43451;49.060;10.616;2022-10-01T10:21:54;6.45;;;5.07;;
57627;SDS011;43451;49.060;10.616;2022-10-01T10:24:31;6.60;;;4.65;;
57627;SDS011;43451;49.060;10.616;2022-10-01T10:26:59;6.05;;;4.70;;
57627;SDS011;43451;49.060;10.616;2022-10-01T10:29:27;7.78;;;4.57;;
57627;SDS011;43451;49.060;10.616;2022-10-01T10:31:55;5.78;;;4.35;;
57627;SDS011;43451;49.060;10.616;2022-10-01T10:34:37;6.60;;;4.50;;
57627;SDS011;43451;49.060;10.616;2022-10-01T10:37:16;5.82;;;3.90;;
57627;SDS011;43451;49.060;10.616;2022-10-01T10:39:45;6.80;;;4.07;;
57627;SDS011;43451;49.060;10.616;2022-10-01T10:42:15;4.68;;;3.63;;
57627;SDS011;43451;49.060;10.616;2022-10-01T10:44:42;4.78;;;3.70;;
57627;SDS011;43451;49.060;10.616;2022-10-01T10:47:14;3.88;;;3.00;;
57627;SDS011;43451;49.060;10.616;2022-10-01T10:52:17;5.53;;;2.90;;
57627;SDS011;43451;49.060;10.616;2022-10-01T10:54:45;3.70;;;2.63;;
57627;SDS011;43451;49.060;10.616;2022-10-01T10:57:20;3.42;;;2.58;;
57627;SDS011;43451;49.060;10.616;2022-10-01T10:59:55;4.00;;;2.42;;
57627;SDS011;43451;49.060;10.616;2022-10-01T11:02:25;3.10;;;2.22;;
57627;SDS011;43451;49.060;10.616;2022-10-01T11:04:54;2.67;;;2.28;;
57627;SDS011;43451;49.060;10.616;2022-10-01T11:07:23;3.58;;;2.40;;
57627;SDS011;43451;49.060;10.616;2022-10-01T11:10:06;3.22;;;2.05;;
57627;SDS011;43451;49.060;10.616;2022-10-01T11:18:20;2.60;;;2.08;;
57627;SDS011;43451;49.060;10.616;2022-10-01T11:27:09;1.67;;;1.50;;
57627;SDS011;43451;49.060;10.616;2022-10-01T11:32:42;2.10;;;1.60;;
57627;SDS011;43451;49.060;10.616;2022-10-01T11:44:35;3.00;;;2.00;;
57627;SDS011;43451;49.060;10.616;2022-10-01T11:47:01;2.60;;;1.90;;
57627;SDS011;43451;49.060;10.616;2022-10-01T11:49:56;2.50;;;1.92;;
57627;SDS011;43451;49.060;10.616;2022-10-01T12:01:54;2.78;;;1.65;;
57627;SDS011;43451;49.060;10.616;2022-10-01T12:12:45;3.95;;;1.20;;
57627;SDS011;43451;49.060;10.616;2022-10-01T12:15:24;1.25;;;0.90;;
57627;SDS011;43451;49.060;10.616;2022-10-01T12:20:43;1.75;;;0.90;;
57627;SDS011;43451;49.060;10.616;2022-10-01T12:23:12;1.60;;;0.80;;
57627;SDS011;43451;49.060;10.616;2022-10-01T12:31:18;2.20;;;0.80;;
57627;SDS011;43451;49.060;10.616;2022-10-01T12:36:44;0.93;;;0.80;;
57627;SDS011;43451;49.060;10.616;2022-10-01T12:39:29;1.23;;;0.60;;
57627;SDS011;43451;49.060;10.616;2022-10-01T13:00:44;1.10;;;0.70;;
57627;SDS011;43451;49.060;10.616;2022-10-01T13:09:11;0.63;;;0.57;;
57627;SDS011;43451;49.060;10.616;2022-10-01T13:11:53;1.75;;;0.50;;
57627;SDS011;43451;49.060;10.616;2022-10-01T13:14:27;1.40;;;0.63;;
57627;SDS011;43451;49.060;10.616;2022-10-01T13:19:57;0.82;;;0.60;;
57627;SDS011;43451;49.060;10.616;2022-10-01T13:22:48;0.63;;;0.60;;
57627;SDS011;43451;49.060;10.616;2022-10-01T13:33:34;2.33;;;0.77;;
57627;SDS011;43451;49.060;10.616;2022-10-01T13:36:01;0.50;;;0.50;;
57627;SDS011;43451;49.060;10.616;2022-10-01T13:38:29;1.38;;;0.80;;
57627;SDS011;43451;49.060;10.616;2022-10-01T13:40:58;0.77;;;0.60;;
57627;SDS011;43451;49.060;10.616;2022-10-01T13:43:26;1.77;;;0.70;;
57627;SDS011;43451;49.060;10.616;2022-10-01T13:48:21;1.42;;;0.80;;
57627;SDS011;43451;49.060;10.616;2022-10-01T13:50:53;1.08;;;0.98;;
57627;SDS011;43451;49.060;10.616;2022-10-01T13:53:22;2.42;;;0.70;;
57627;SDS011;43451;49.060;10.616;2022-10-01T13:55:50;1.30;;;0.70;;
57627;SDS011;43451;49.060;10.616;2022-10-01T14:00:59;1.23;;;0.75;;
57627;SDS011;43451;49.060;10.616;2022-10-01T14:06:14;1.15;;;0.75;;
57627;SDS011;43451;49.060;10.616;2022-10-01T14:08:48;1.90;;;0.90;;
57627;SDS011;43451;49.060;10.616;2022-10-01T14:11:18;1.52;;;0.90;;
57627;SDS011;43451;49.060;10.616;2022-10-01T14:17:25;1.10;;;0.70;;
57627;SDS011;43451;49.060;10.616;2022-10-01T14:19:54;1.17;;;0.70;;
57627;SDS011;43451;49.060;10.616;2022-10-01T14:34:10;0.90;;;0.63;;
57627;SDS011;43451;49.060;10.616;2022-10-01T14:36:31;1.17;;;0.63;;
57627;SDS011;43451;49.060;10.616;2022-10-01T14:41:42;0.75;;;0.75;;
57627;SDS011;43451;49.060;10.616;2022-10-01T14:46:56;1.30;;;0.80;;
57627;SDS011;43451;49.060;10.616;2022-10-01T14:49:24;1.20;;;1.00;;
57627;SDS011;43451;49.060;10.616;2022-10-01T14:52:02;1.15;;;0.75;;
57627;SDS011;43451;49.060;10.616;2022-10-01T14:54:30;1.70;;;0.68;;
57627;SDS011;43451;49.060;10.616;2022-10-01T14:57:10;2.00;;;0.90;;
57627;SDS011;43451;49.060;10.616;2022-10-01T14:59:41;2.05;;;0.80;;
57627;SDS011;43451;49.060;10.616;2022-10-01T15:02:15;2.50;;;0.77;;
57627;SDS011;43451;49.060;10.616;2022-10-01T15:04:49;1.42;;;0.80;;
57627;SDS011;43451;49.060;10.616;2022-10-01T15:07:17;2.10;;;0.98;;
57627;SDS011;43451;49.060;10.616;2022-10-01T15:09:44;1.25;;;0.70;;
57627;SDS011;43451;49.060;10.616;2022-10-01T15:12:10;0.80;;;0.80;;
57627;SDS011;43451;49.060;10.616;2022-10-01T15:14:41;1.35;;;0.70;;
57627;SDS011;43451;49.060;10.616;2022-10-01T15:17:11;2.17;;;1.08;;
57627;SDS011;43451;49.060;10.616;2022-10-01T15:19:44;1.00;;;0.70;;
57627;SDS011;43451;49.060;10.616;2022-10-01T15:22:21;1.10;;;0.70;;
57627;SDS011;43451;49.060;10.616;2022-10-01T15:24:51;2.00;;;0.95;;
57627;SDS011;43451;49.060;10.616;2022-10-01T15:27:21;0.60;;;0.60;;
57627;SDS011;43451;49.060;10.616;2022-10-01T15:29:49;0.70;;;0.70;;
57627;SDS011;43451;49.060;10.616;2022-10-01T15:32:17;1.70;;;0.80;;
57627;SDS011;43451;49.060;10.616;2022-10-01T15:34:51;0.90;;;0.80;;
57627;SDS011;43451;49.060;10.616;2022-10-01T15:37:34;1.13;;;0.60;;
57627;SDS011;43451;49.060;10.616;2022-10-01T15:40:02;0.90;;;0.85;;
57627;SDS011;43451;49.060;10.616;2022-10-01T15:42:30;0.95;;;0.75;;
57627;SDS011;43451;49.060;10.616;2022-10-01T15:47:34;1.02;;;0.90;;
57627;SDS011;43451;49.060;10.616;2022-10-01T15:52:35;1.55;;;0.80;;
57627;SDS011;43451;49.060;10.616;2022-10-01T16:03:19;1.90;;;1.08;;
57627;SDS011;43451;49.060;10.616;2022-10-01T16:05:47;1.70;;;0.80;;
57627;SDS011;43451;49.060;10.616;2022-10-01T16:08:17;1.63;;;1.10;;
57627;SDS011;43451;49.060;10.616;2022-10-01T16:10:48;1.75;;;0.90;;
57627;SDS011;43451;49.060;10.616;2022-10-01T16:13:36;1.60;;;1.00;;
57627;SDS011;43451;49.060;10.616;2022-10-01T16:16:11;0.70;;;0.70;;
57627;SDS011;43451;49.060;10.616;2022-10-01T16:18:46;1.10;;;1.00;;
57627;SDS011;43451;49.060;10.616;2022-10-01T16:21:36;1.83;;;0.70;;
57627;SDS011;43451;49.060;10.616;2022-10-01T16:24:04;0.95;;;0.70;;
57627;SDS011;43451;49.060;10.616;2022-10-01T16:26:51;1.30;;;1.10;;
57627;SDS011;43451;49.060;10.616;2022-10-01T16:29:23;2.50;;;0.90;;
57627;SDS011;43451;49.060;10.616;2022-10-01T16:31:51;1.23;;;0.83;;
57627;SDS011;43451;49.060;10.616;2022-10-01T16:34:17;1.08;;;0.70;;
57627;SDS011;43451;49.060;10.616;2022-10-01T16:36:44;1.02;;;0.93;;
57627;SDS011;43451;49.060;10.616;2022-10-01T16:39:11;3.10;;;1.00;;
57627;SDS011;43451;49.060;10.616;2022-10-01T16:41:39;0.80;;;0.75;;
57627;SDS011;43451;49.060;10.616;2022-10-01T16:44:08;1.23;;;0.70;;
57627;SDS011;43451;49.060;10.616;2022-10-01T16:46:37;0.93;;;0.73;;
57627;SDS011;43451;49.060;10.616;2022-10-01T16:49:12;0.70;;;0.70;;
57627;SDS011;43451;49.060;10.616;2022-10-01T16:51:39;1.65;;;0.80;;
57627;SDS011;43451;49.060;10.616;2022-10-01T16:54:17;1.20;;;0.80;;
57627;SDS011;43451;49.060;10.616;2022-10-01T16:56:46;1.50;;;0.75;;
57627;SDS011;43451;49.060;10.616;2022-10-01T16:59:12;1.52;;;0.73;;
57627;SDS011;43451;49.060;10.616;2022-10-01T17:01:38;1.55;;;0.88;;
57627;SDS011;43451;49.060;10.616;2022-10-01T17:04:04;1.17;;;0.82;;
57627;SDS011;43451;49.060;10.616;2022-10-01T17:06:29;1.63;;;0.80;;
57627;SDS011;43451;49.060;10.616;2022-10-01T17:08:55;3.28;;;1.02;;
57627;SDS011;43451;49.060;10.616;2022-10-01T17:11:20;4.45;;;1.00;;
57627;SDS011;43451;49.060;10.616;2022-10-01T17:13:48;0.80;;;0.80;;
57627;SDS011;43451;49.060;10.616;2022-10-01T17:16:14;0.93;;;0.70;;
57627;SDS011;43451;49.060;10.616;2022-10-01T17:18:39;1.58;;;0.80;;
57627;SDS011;43451;49.060;10.616;2022-10-01T17:23:33;1.88;;;0.85;;
57627;SDS011;43451;49.060;10.616;2022-10-01T17:26:00;2.35;;;1.00;;
57627;SDS011;43451;49.060;10.616;2022-10-01T17:28:26;2.15;;;0.77;;
57627;SDS011;43451;49.060;10.616;2022-10-01T17:30:51;1.05;;;0.70;;
57627;SDS011;43451;49.060;10.616;2022-10-01T17:33:17;1.70;;;0.73;;
57627;SDS011;43451;49.060;10.616;2022-10-01T17:35:44;1.52;;;0.70;;
57627;SDS011;43451;49.060;10.616;2022-10-01T17:38:15;0.90;;;0.70;;